createdAt,value
2018-04-07T00:00:04.228Z,87.80
2018-04-07T00:02:31.699Z,88.10
2018-04-07T00:04:59.936Z,88.90
2018-04-07T00:07:27.405Z,88.90
2018-04-07T00:09:54.872Z,88.50
2018-04-07T00:12:22.353Z,89.10
2018-04-07T00:14:49.820Z,89.10
2018-04-07T00:17:17.292Z,88.70
2018-04-07T00:19:44.814Z,89.00
2018-04-07T00:22:13.057Z,89.70
2018-04-07T00:24:40.529Z,89.70
2018-04-07T00:27:08.011Z,89.70
2018-04-07T00:29:35.489Z,90.10
2018-04-07T00:32:02.956Z,90.10
2018-04-07T00:34:30.441Z,90.50
2018-04-07T00:36:58.686Z,90.90
2018-04-07T00:39:26.923Z,90.80
2018-04-07T00:41:54.394Z,90.80
2018-04-07T00:44:21.864Z,90.30
2018-04-07T00:46:49.337Z,90.10
2018-04-07T00:49:16.818Z,90.50
2018-04-07T00:51:44.289Z,90.80
2018-04-07T01:00:18.957Z,91.40
2018-04-07T01:02:46.432Z,91.50
2018-04-07T01:05:13.896Z,91.30
2018-04-07T01:07:41.373Z,91.20
2018-04-07T01:10:08.856Z,91.20
2018-04-07T01:12:37.092Z,92.00
2018-04-07T01:15:04.558Z,92.00
2018-04-07T01:17:36.802Z,92.20
2018-04-07T01:20:04.272Z,92.60
2018-04-07T01:22:31.735Z,93.00
2018-04-07T01:24:59.208Z,93.20
2018-04-07T01:27:26.679Z,93.30
2018-04-07T01:29:54.149Z,93.30
2018-04-07T01:32:22.385Z,93.40
2018-04-07T01:34:49.875Z,93.40
2018-04-07T01:37:17.337Z,93.20
2018-04-07T01:39:44.816Z,93.20
2018-04-07T01:45:26.333Z,93.60
2018-04-07T01:47:53.809Z,93.70
2018-04-07T01:50:21.271Z,93.90
2018-04-07T01:52:48.748Z,94.20
2018-04-07T01:55:16.975Z,94.10
2018-04-07T01:57:44.448Z,94.10
2018-04-07T02:00:11.907Z,94.00
2018-04-07T02:02:39.380Z,93.90
2018-04-07T02:05:06.861Z,93.80
2018-04-07T02:07:34.325Z,93.80
2018-04-07T02:10:02.557Z,93.00
2018-04-07T02:12:30.020Z,93.00
2018-04-07T02:14:57.492Z,93.10
2018-04-07T02:17:24.953Z,93.30
2018-04-07T02:19:53.188Z,93.20
2018-04-07T02:22:20.662Z,93.20
2018-04-07T02:24:48.905Z,93.10
2018-04-07T02:27:20.825Z,93.10
2018-04-07T02:29:48.284Z,93.10
2018-04-07T02:32:15.748Z,93.10
2018-04-07T02:34:43.225Z,93.10
2018-04-07T02:37:10.683Z,92.90
2018-04-07T02:39:38.920Z,92.80
2018-04-07T02:42:06.380Z,92.70
2018-04-07T02:44:33.864Z,92.70
2018-04-07T02:47:01.329Z,92.80
2018-04-07T02:49:29.569Z,92.50
2018-04-07T02:51:57.024Z,92.50
2018-04-07T02:54:25.337Z,92.50
2018-04-07T02:56:52.731Z,92.40
2018-04-07T02:59:20.214Z,92.40
2018-04-07T03:01:47.698Z,92.30
2018-04-07T03:04:15.173Z,92.10
2018-04-07T03:06:43.400Z,91.00
2018-04-07T03:09:10.874Z,91.00
2018-04-07T03:11:39.100Z,90.00
2018-04-07T03:14:06.568Z,90.00
2018-04-07T03:16:34.037Z,89.70
2018-04-07T03:19:01.508Z,89.70
2018-04-07T03:21:29.727Z,89.60
2018-04-07T03:23:57.200Z,89.60
2018-04-07T03:26:24.660Z,89.50
2018-04-07T03:28:52.905Z,90.40
2018-04-07T03:31:20.369Z,90.40
2018-04-07T03:33:48.604Z,90.20
2018-04-07T03:36:16.068Z,90.10
2018-04-07T03:38:43.545Z,90.30
2018-04-07T03:41:11.003Z,90.70
2018-04-07T03:43:39.241Z,91.30
2018-04-07T03:46:06.699Z,91.30
2018-04-07T03:48:34.940Z,90.80
2018-04-07T03:51:02.405Z,90.80
2018-04-07T03:53:29.891Z,90.70
2018-04-07T03:55:58.120Z,90.50
2018-04-07T03:58:25.947Z,90.80
2018-04-07T04:00:53.414Z,91.00
2018-04-07T04:03:20.888Z,91.10
2018-04-07T04:05:48.353Z,90.90
2018-04-07T04:08:41.259Z,90.80
2018-04-07T04:11:08.719Z,91.00
2018-04-07T04:13:36.197Z,90.80
2018-04-07T04:16:03.675Z,90.50
2018-04-07T04:18:31.888Z,89.40
2018-04-07T04:20:59.361Z,89.20
2018-04-07T04:23:26.847Z,90.00
2018-04-07T04:25:55.050Z,90.10
2018-04-07T04:28:22.515Z,90.10
2018-04-07T04:30:50.752Z,90.80
2018-04-07T04:33:18.207Z,90.70
2018-04-07T04:35:46.471Z,91.00
2018-04-07T04:38:13.938Z,91.00
2018-04-07T04:40:41.403Z,90.60
2018-04-07T04:43:08.885Z,90.40
2018-04-07T04:45:37.128Z,89.60
2018-04-07T04:48:04.597Z,90.10
2018-04-07T04:50:32.068Z,90.00
2018-04-07T04:52:59.536Z,89.80
2018-04-07T04:58:38.576Z,90.40
2018-04-07T05:01:06.039Z,90.20
2018-04-07T05:03:34.262Z,90.00
2018-04-07T05:06:01.746Z,90.00
2018-04-07T05:08:29.204Z,89.50
2018-04-07T05:10:57.431Z,89.80
2018-04-07T05:13:24.892Z,89.80
2018-04-07T05:15:52.360Z,90.00
2018-04-07T05:18:19.819Z,88.70
2018-04-07T05:20:47.296Z,89.80
2018-04-07T05:23:14.760Z,88.80
2018-04-07T05:25:42.236Z,88.30
2018-04-07T05:28:09.695Z,89.10
2018-04-07T05:30:37.156Z,86.80
2018-04-07T05:33:05.024Z,86.40
2018-04-07T05:35:32.500Z,84.80
2018-04-07T05:37:59.972Z,83.60
2018-04-07T05:40:27.449Z,83.20
2018-04-07T05:42:54.907Z,81.50
2018-04-07T05:45:22.385Z,77.50
2018-04-07T05:47:49.910Z,73.70
2018-04-07T05:50:17.411Z,69.60
2018-04-07T05:55:55.756Z,62.70
2018-04-07T05:58:23.215Z,56.80
2018-04-07T06:00:50.705Z,56.80
2018-04-07T06:03:18.167Z,56.20
2018-04-07T06:05:46.403Z,54.90
2018-04-07T06:08:13.888Z,54.90
2018-04-07T06:10:41.361Z,50.70
2018-04-07T06:13:08.820Z,45.50
2018-04-07T06:15:37.063Z,44.50
2018-04-07T06:18:05.305Z,44.30
2018-04-07T06:20:32.787Z,44.10
2018-04-07T06:23:04.675Z,44.90
2018-04-07T06:25:39.105Z,44.10
2018-04-07T06:28:06.563Z,45.70
2018-04-07T06:30:34.045Z,43.00
2018-04-07T06:33:01.503Z,46.40
2018-04-07T06:35:28.976Z,48.10
2018-04-07T06:37:56.444Z,49.80
2018-04-07T06:40:23.916Z,49.30
2018-04-07T06:42:51.383Z,49.60
2018-04-07T06:45:18.869Z,45.70
2018-04-07T06:47:46.341Z,44.30
2018-04-07T06:50:14.597Z,47.50
2018-04-07T06:52:42.068Z,47.50
2018-04-07T06:55:09.543Z,41.90
2018-04-07T06:57:37.771Z,37.80
2018-04-07T07:00:06.024Z,38.20
2018-04-07T07:02:33.488Z,38.20
2018-04-07T07:05:01.733Z,35.30
2018-04-07T07:07:29.984Z,36.50
2018-04-07T07:09:57.460Z,36.40
2018-04-07T07:12:24.933Z,34.10
2018-04-07T07:14:52.417Z,37.90
2018-04-07T07:17:19.890Z,40.70
2018-04-07T07:19:47.364Z,39.30
2018-04-07T07:22:14.836Z,39.30
2018-04-07T07:24:42.317Z,39.00
2018-04-07T07:27:09.787Z,35.80
2018-04-07T07:29:37.287Z,32.70
2018-04-07T07:32:04.725Z,33.70
2018-04-07T07:34:32.201Z,34.70
2018-04-07T07:36:59.657Z,35.80
2018-04-07T07:39:27.528Z,33.40
2018-04-07T07:41:56.222Z,35.70
2018-04-07T07:44:23.675Z,34.70
2018-04-07T07:46:51.151Z,37.90
2018-04-07T07:49:18.616Z,35.40
2018-04-07T07:51:46.091Z,35.50
2018-04-07T07:54:13.570Z,35.50
2018-04-07T07:56:41.048Z,39.70
2018-04-07T07:59:08.511Z,37.60
2018-04-07T08:01:35.992Z,37.60
2018-04-07T08:04:03.455Z,39.50
2018-04-07T08:06:30.932Z,38.10
2018-04-07T08:08:58.469Z,39.20
2018-04-07T08:11:26.403Z,35.80
2018-04-07T08:13:53.872Z,32.80
2018-04-07T08:16:21.352Z,35.90
2018-04-07T08:18:48.840Z,39.10
2018-04-07T08:21:17.076Z,40.20
2018-04-07T08:23:44.540Z,40.20
2018-04-07T08:26:12.030Z,41.30
2018-04-07T08:28:39.493Z,39.50
2018-04-07T08:31:07.006Z,38.60
2018-04-07T08:33:34.471Z,35.00
2018-04-07T08:36:02.703Z,32.90
2018-04-07T08:38:30.182Z,32.90
2018-04-07T08:40:57.646Z,29.70
2018-04-07T08:43:25.152Z,33.30
2018-04-07T08:45:52.679Z,38.50
2018-04-07T08:48:20.919Z,37.90
2018-04-07T08:50:48.396Z,37.90
2018-04-07T08:53:15.900Z,38.00
2018-04-07T08:55:43.362Z,33.70
2018-04-07T08:58:11.599Z,29.90
2018-04-07T09:00:39.105Z,30.00
2018-04-07T09:03:06.584Z,30.00
2018-04-07T09:05:34.069Z,30.50
2018-04-07T09:08:01.557Z,33.80
2018-04-07T09:10:29.032Z,32.50
2018-04-07T09:12:56.502Z,30.00
2018-04-07T09:15:24.752Z,27.40
2018-04-07T09:17:52.206Z,27.40
2018-04-07T09:20:19.680Z,28.10
2018-04-07T09:22:47.148Z,31.90
2018-04-07T09:25:14.633Z,33.20
2018-04-07T09:27:42.095Z,33.30
2018-04-07T09:30:09.597Z,37.50
2018-04-07T09:32:40.592Z,31.50
2018-04-07T09:35:15.835Z,32.10
2018-04-07T09:37:43.308Z,32.10
2018-04-07T09:40:10.785Z,31.20
2018-04-07T09:42:43.761Z,30.50
2018-04-07T09:45:11.234Z,30.70
2018-04-07T09:47:38.704Z,31.20
2018-04-07T09:50:06.180Z,30.10
2018-04-07T09:52:33.659Z,34.60
2018-04-07T09:55:01.159Z,40.10
2018-04-07T09:57:28.657Z,31.10
2018-04-07T09:59:56.672Z,34.10
2018-04-07T10:02:24.138Z,32.90
2018-04-07T10:04:51.603Z,33.40
2018-04-07T10:07:19.217Z,37.20
2018-04-07T10:09:46.683Z,31.50
2018-04-07T10:12:14.168Z,33.50
2018-04-07T10:14:41.636Z,28.10
2018-04-07T10:17:09.107Z,30.80
2018-04-07T10:19:36.568Z,26.80
2018-04-07T10:22:04.817Z,31.40
2018-04-07T10:24:32.284Z,31.40
2018-04-07T10:26:59.759Z,26.30
2018-04-07T10:29:27.228Z,28.00
2018-04-07T10:31:55.487Z,27.40
2018-04-07T10:34:22.942Z,27.30
2018-04-07T10:36:50.412Z,26.90
2018-04-07T10:39:18.648Z,27.40
2018-04-07T10:41:46.124Z,27.30
2018-04-07T10:44:13.583Z,25.60
2018-04-07T10:46:41.060Z,32.70
2018-04-07T10:49:09.309Z,27.40
2018-04-07T10:51:36.772Z,27.40
2018-04-07T10:54:04.244Z,29.00
2018-04-07T10:56:31.716Z,28.70
2018-04-07T10:58:59.189Z,30.40
2018-04-07T11:01:26.663Z,30.60
2018-04-07T11:03:54.141Z,25.50
2018-04-07T11:06:21.620Z,26.80
2018-04-07T11:08:49.088Z,29.30
2018-04-07T11:11:16.565Z,26.70
2018-04-07T11:13:44.040Z,29.90
2018-04-07T11:16:11.516Z,26.80
2018-04-07T11:18:39.024Z,26.30
2018-04-07T11:21:06.526Z,25.10
2018-04-07T11:23:33.984Z,27.00
2018-04-07T11:26:01.463Z,25.20
2018-04-07T11:28:28.934Z,24.10
2018-04-07T11:30:56.410Z,21.70
2018-04-07T11:33:24.635Z,20.50
2018-04-07T11:35:52.104Z,20.60
2018-04-07T11:38:20.345Z,24.00
2018-04-07T11:40:47.817Z,23.90
2018-04-07T11:43:15.290Z,25.10
2018-04-07T11:45:43.511Z,26.90
2018-04-07T11:48:10.983Z,26.70
2018-04-07T11:50:39.212Z,24.30
2018-04-07T11:53:06.733Z,24.20
2018-04-07T11:55:34.156Z,25.60
2018-04-07T11:58:02.400Z,25.00
2018-04-07T12:00:29.874Z,25.00
2018-04-07T12:02:57.348Z,20.90
2018-04-07T12:05:24.824Z,25.30
2018-04-07T12:07:52.353Z,20.70
2018-04-07T12:10:19.794Z,21.10
2018-04-07T12:12:48.036Z,25.50
2018-04-07T12:15:15.527Z,25.40
2018-04-07T12:17:43.006Z,24.20
2018-04-07T12:20:10.472Z,24.40
2018-04-07T12:22:37.964Z,26.90
2018-04-07T12:25:05.430Z,24.10
2018-04-07T12:27:32.908Z,24.20
2018-04-07T12:30:01.148Z,22.20
2018-04-07T12:32:28.632Z,22.20
2018-04-07T12:34:56.095Z,22.90
2018-04-07T12:37:23.568Z,25.50
2018-04-07T12:39:51.035Z,27.20
2018-04-07T12:42:19.271Z,24.30
2018-04-07T12:44:46.738Z,24.20
2018-04-07T12:47:14.217Z,22.70
2018-04-07T12:49:41.679Z,22.90
2018-04-07T12:52:09.164Z,22.10
2018-04-07T12:54:36.653Z,25.30
2018-04-07T12:57:04.120Z,26.80
2018-04-07T12:59:31.589Z,25.30
2018-04-07T13:01:59.837Z,28.10
2018-04-07T13:04:27.303Z,28.10
2018-04-07T13:06:54.792Z,24.70
2018-04-07T13:09:22.260Z,26.20
2018-04-07T13:14:47.723Z,27.20
2018-04-07T13:17:15.211Z,27.10
2018-04-07T13:19:42.712Z,25.60
2018-04-07T13:22:10.235Z,23.40
2018-04-07T13:24:37.815Z,22.30
2018-04-07T13:27:05.287Z,22.10
2018-04-07T13:29:32.751Z,24.10
2018-04-07T13:32:00.247Z,24.60
2018-04-07T13:34:27.713Z,25.00
2018-04-07T13:36:55.179Z,23.50
2018-04-07T13:39:22.675Z,24.80
2018-04-07T13:41:50.161Z,25.20
2018-04-07T13:44:17.652Z,25.60
2018-04-07T13:46:45.132Z,27.10
2018-04-07T13:49:12.594Z,24.90
2018-04-07T13:51:40.853Z,24.60
2018-04-07T13:54:08.320Z,24.60
2018-04-07T13:56:36.566Z,24.20
2018-04-07T13:59:04.040Z,24.30
2018-04-07T14:01:31.512Z,25.00
2018-04-07T14:03:59.016Z,26.40
2018-04-07T14:06:28.111Z,25.50
2018-04-07T14:08:55.593Z,25.40
2018-04-07T14:11:23.060Z,22.40
2018-04-07T14:13:50.540Z,24.80
2018-04-07T14:16:18.002Z,27.60
2018-04-07T14:18:46.244Z,26.70
2018-04-07T14:21:13.725Z,26.70
2018-04-07T14:23:41.200Z,27.50
2018-04-07T14:26:08.702Z,26.50
2018-04-07T14:28:36.942Z,28.50
2018-04-07T14:31:05.171Z,29.00
2018-04-07T14:33:32.655Z,29.00
2018-04-07T14:36:00.888Z,28.40
2018-04-07T14:38:28.363Z,27.90
2018-04-07T14:41:02.546Z,25.40
2018-04-07T14:43:30.020Z,28.60
2018-04-07T14:45:57.493Z,26.10
2018-04-07T14:48:24.970Z,24.70
2018-04-07T14:50:52.436Z,25.20
2018-04-07T14:53:19.913Z,25.60
2018-04-07T14:55:47.380Z,26.40
2018-04-07T14:58:15.616Z,25.90
2018-04-07T15:00:43.079Z,26.00
2018-04-07T15:03:10.566Z,27.10
2018-04-07T15:05:38.022Z,27.60
2018-04-07T15:08:06.268Z,27.40
2018-04-07T15:10:33.734Z,27.30
2018-04-07T15:13:01.974Z,32.10
2018-04-07T15:15:29.445Z,32.80
2018-04-07T15:17:56.921Z,33.60
2018-04-07T15:20:24.383Z,35.00
2018-04-07T15:22:52.619Z,37.00
2018-04-07T15:25:20.096Z,37.10
2018-04-07T15:27:47.561Z,38.80
2018-04-07T15:30:15.019Z,36.80
2018-04-07T15:32:43.269Z,36.60
2018-04-07T15:35:10.736Z,36.50
2018-04-07T15:37:38.211Z,37.10
2018-04-07T15:40:05.675Z,35.80
2018-04-07T15:42:33.916Z,36.70
2018-04-07T15:45:01.416Z,36.60
2018-04-07T15:47:28.860Z,35.50
2018-04-07T15:49:56.335Z,35.70
2018-04-07T15:52:24.578Z,37.00
2018-04-07T15:54:52.817Z,37.30
2018-04-07T15:57:20.309Z,37.20
2018-04-07T15:59:47.771Z,37.20
2018-04-07T16:02:15.255Z,37.90
2018-04-07T16:04:42.724Z,37.20
2018-04-07T16:07:10.202Z,38.50
2018-04-07T16:09:37.668Z,38.50
2018-04-07T16:12:05.141Z,38.50
2018-04-07T16:14:32.620Z,38.20
2018-04-07T16:17:00.848Z,39.50
2018-04-07T16:19:28.338Z,39.40
2018-04-07T16:21:56.108Z,37.00
2018-04-07T16:24:23.579Z,37.30
2018-04-07T16:26:51.811Z,39.40
2018-04-07T16:29:19.283Z,39.40
2018-04-07T16:31:46.773Z,38.50
2018-04-07T16:34:14.281Z,37.40
2018-04-07T16:36:41.731Z,37.30
2018-04-07T16:39:09.309Z,38.40
2018-04-07T16:41:36.773Z,39.50
2018-04-07T16:44:05.012Z,38.60
2018-04-07T16:46:32.483Z,38.50
2018-04-07T16:48:59.988Z,39.20
2018-04-07T16:51:27.459Z,40.10
2018-04-07T16:53:54.945Z,40.60
2018-04-07T16:56:22.452Z,41.30
2018-04-07T16:58:49.924Z,42.20
2018-04-07T17:01:17.379Z,43.20
2018-04-07T17:03:44.864Z,42.20
2018-04-07T17:06:12.322Z,43.00
2018-04-07T17:08:40.574Z,44.50
2018-04-07T17:11:08.045Z,44.40
2018-04-07T17:13:35.514Z,45.00
2018-04-07T17:16:02.988Z,46.40
2018-04-07T17:18:30.456Z,47.90
2018-04-07T17:20:58.712Z,48.00
2018-04-07T17:23:26.186Z,47.90
2018-04-07T17:25:53.661Z,48.70
2018-04-07T17:28:21.128Z,48.60
2018-04-07T17:30:49.370Z,47.70
2018-04-07T17:33:16.833Z,47.80
2018-04-07T17:35:44.312Z,48.40
2018-04-07T17:38:11.771Z,48.30
2018-04-07T17:40:40.025Z,50.00
2018-04-07T17:43:07.498Z,49.80
2018-04-07T17:45:34.968Z,49.70
2018-04-07T17:48:02.430Z,50.90
2018-04-07T17:50:29.903Z,50.80
2018-04-07T17:52:57.363Z,51.10
2018-04-07T17:55:24.835Z,52.50
2018-04-07T17:57:52.300Z,50.40
2018-04-07T18:00:19.767Z,50.90
2018-04-07T18:02:47.232Z,51.60
2018-04-07T18:05:14.709Z,51.70
2018-04-07T18:07:42.182Z,52.30
2018-04-07T18:10:10.429Z,54.30
2018-04-07T18:12:37.899Z,54.30
2018-04-07T18:15:05.378Z,54.30
2018-04-07T18:17:32.840Z,56.20
2018-04-07T18:20:01.079Z,58.10
2018-04-07T18:22:28.540Z,58.00
2018-04-07T18:24:56.025Z,60.30
2018-04-07T18:27:24.242Z,60.80
2018-04-07T18:29:51.716Z,60.80
2018-04-07T18:32:19.182Z,62.30
2018-04-07T18:34:47.406Z,65.90
2018-04-07T18:37:14.876Z,65.90
2018-04-07T18:39:42.416Z,67.70
2018-04-07T18:42:09.892Z,68.00
2018-04-07T18:44:37.368Z,69.70
2018-04-07T18:47:04.845Z,70.70
2018-04-07T18:49:32.303Z,71.90
2018-04-07T18:51:59.784Z,76.20
2018-04-07T18:54:27.255Z,78.30
2018-04-07T18:56:54.726Z,80.00
2018-04-07T18:59:22.190Z,79.10
2018-04-07T19:01:49.682Z,79.10
2018-04-07T19:04:17.156Z,80.40
2018-04-07T19:06:44.636Z,80.40
2018-04-07T19:09:12.112Z,82.20
2018-04-07T19:11:39.584Z,82.90
2018-04-07T19:14:07.059Z,84.00
2018-04-07T19:16:34.540Z,83.10
2018-04-07T19:19:02.003Z,83.00
2018-04-07T19:21:30.239Z,83.10
2018-04-07T19:23:57.699Z,83.10
2018-04-07T19:26:25.191Z,81.00
2018-04-07T19:28:52.662Z,79.50
2018-04-07T19:31:20.144Z,77.60
2018-04-07T19:33:49.236Z,75.10
2018-04-07T19:36:16.721Z,75.10
2018-04-07T19:38:44.187Z,75.70
2018-04-07T19:41:11.729Z,75.50
2018-04-07T19:43:40.193Z,74.80
2018-04-07T19:46:07.655Z,73.80
2018-04-07T19:48:35.129Z,73.70
2018-04-07T19:51:02.740Z,74.00
2018-04-07T19:53:30.212Z,73.10
2018-04-07T19:55:57.683Z,73.10
2018-04-07T19:58:25.156Z,73.10
2018-04-07T20:00:52.627Z,73.60
2018-04-07T20:03:20.109Z,74.20
2018-04-07T20:05:48.364Z,74.30
2018-04-07T20:08:15.833Z,74.20
2018-04-07T20:10:43.317Z,74.50
2018-04-07T20:13:10.803Z,74.10
2018-04-07T20:15:39.051Z,75.20
2018-04-07T20:18:06.514Z,75.10
2018-04-07T20:20:33.983Z,74.20
2018-04-07T20:23:01.456Z,74.00
2018-04-07T20:25:29.678Z,75.20
2018-04-07T20:27:57.737Z,75.20
2018-04-07T20:30:26.836Z,75.90
2018-04-07T20:32:55.072Z,76.90
2018-04-07T20:35:23.299Z,76.70
2018-04-07T20:37:50.775Z,76.60
2018-04-07T20:40:18.298Z,77.00
2018-04-07T20:42:45.735Z,77.10
2018-04-07T20:45:13.197Z,77.60
2018-04-07T20:47:40.680Z,77.70
2018-04-07T20:50:08.157Z,77.70
2018-04-07T20:52:35.636Z,78.20
2018-04-07T20:55:03.095Z,78.20
2018-04-07T20:57:30.563Z,78.10
2018-04-07T20:59:58.032Z,78.00
2018-04-07T21:02:25.522Z,77.90
2018-04-07T21:04:57.279Z,78.40
2018-04-07T21:07:24.770Z,78.40
2018-04-07T21:09:52.228Z,78.30
2018-04-07T21:12:20.504Z,78.80
2018-04-07T21:14:47.928Z,78.70
2018-04-07T21:17:15.407Z,79.10
2018-04-07T21:19:42.881Z,79.30
2018-04-07T21:22:10.364Z,79.00
2018-04-07T21:24:37.827Z,79.90
2018-04-07T21:27:06.074Z,78.90
2018-04-07T21:29:33.549Z,78.90
2018-04-07T21:32:01.040Z,78.90
2018-04-07T21:34:45.939Z,80.10
2018-04-07T21:37:14.167Z,80.90
2018-04-07T21:39:41.635Z,80.80
2018-04-07T21:42:09.107Z,81.80
2018-04-07T21:44:36.571Z,83.00
2018-04-07T21:47:04.038Z,83.90
2018-04-07T21:49:31.509Z,84.40
2018-04-07T21:51:58.980Z,85.30
2018-04-07T21:54:26.447Z,86.40
2018-04-07T21:56:54.678Z,86.40
2018-04-07T21:59:22.138Z,86.40
2018-04-07T22:01:50.370Z,87.70
2018-04-07T22:04:17.840Z,87.60
2018-04-07T22:06:46.080Z,88.90
2018-04-07T22:09:13.550Z,88.90
2018-04-07T22:11:41.045Z,88.20
2018-04-07T22:14:08.490Z,88.30
2018-04-07T22:16:36.741Z,88.90
2018-04-07T22:19:04.215Z,88.90
2018-04-07T22:21:31.696Z,89.40
2018-04-07T22:23:59.162Z,89.70
2018-04-07T22:26:26.636Z,89.70
2018-04-07T22:28:54.104Z,89.30
2018-04-07T22:31:22.343Z,90.00
2018-04-07T22:33:49.807Z,90.00
2018-04-07T22:36:17.276Z,90.00
2018-04-07T22:38:44.747Z,90.80
2018-04-07T22:41:12.210Z,90.20
2018-04-07T22:43:39.688Z,90.10
2018-04-07T22:46:07.152Z,90.80
2018-04-07T22:48:34.629Z,90.90
2018-04-07T22:51:02.096Z,91.20
2018-04-07T22:53:29.568Z,91.30
2018-04-07T22:55:57.800Z,91.10
2018-04-07T22:58:25.268Z,91.10
2018-04-07T23:00:52.731Z,90.90
2018-04-07T23:03:20.974Z,91.20
2018-04-07T23:05:48.436Z,91.40
2018-04-07T23:08:15.908Z,91.40
2018-04-07T23:10:44.144Z,91.50
2018-04-07T23:13:11.611Z,91.40
2018-04-07T23:15:39.081Z,91.60
2018-04-07T23:18:07.321Z,92.00
2018-04-07T23:20:34.779Z,92.00
2018-04-07T23:23:09.047Z,92.10
2018-04-07T23:25:36.511Z,92.40
2018-04-07T23:28:04.752Z,92.70
2018-04-07T23:30:32.220Z,92.70
2018-04-07T23:32:59.693Z,92.70
2018-04-07T23:35:27.925Z,93.20
2018-04-07T23:37:55.407Z,93.20
2018-04-07T23:40:22.873Z,93.50
2018-04-07T23:42:50.358Z,93.50
2018-04-07T23:45:18.588Z,94.10
2018-04-07T23:47:46.061Z,94.10
2018-04-07T23:50:13.518Z,94.60
2018-04-07T23:52:41.003Z,94.30
2018-04-07T23:55:08.464Z,94.40
2018-04-07T23:57:35.944Z,94.50
